Time;durP1;ratioP1;P1;durP2;ratioP2;P2;SDS_P1;SDS_P2;PMS_P1;PMS_P2;Temp;Humidity;BMP_temperature;BMP_pressure;BME280_temperature;BME280_humidity;BME280_pressure;Samples;Min_cycle;Max_cycle;Signal;HPM_P1;HPM_P2
2021/01/18 00:00:54;;;;;;;19.57;12.40;;;8.30;99.90;;;;;;5060870;28;20801;-73
2021/01/18 00:03:20;;;;;;;26.80;14.53;;;8.30;99.90;;;;;;5062555;28;20454;-77
2021/01/18 00:05:46;;;;;;;21.33;13.60;;;8.30;99.90;;;;;;5058987;28;20389;-80
2021/01/18 00:08:12;;;;;;;24.10;13.63;;;8.30;99.90;;;;;;5060970;28;20899;-77
2021/01/18 00:10:37;;;;;;;22.83;14.43;;;8.30;99.90;;;;;;5053807;28;20641;-77
2021/01/18 00:13:03;;;;;;;25.23;14.67;;;8.40;99.90;;;;;;5051767;28;20208;-77
2021/01/18 00:15:29;;;;;;;28.97;14.27;;;8.30;99.90;;;;;;5069020;28;20222;-76
2021/01/18 00:17:55;;;;;;;25.50;14.80;;;8.30;99.90;;;;;;5067246;28;20176;-78
2021/01/18 00:20:22;;;;;;;24.20;15.10;;;8.30;99.90;;;;;;5053131;28;20177;-78
2021/01/18 00:22:49;;;;;;;21.63;14.63;;;8.20;99.90;;;;;;5063221;28;20466;-75
2021/01/18 00:25:19;;;;;;;25.40;14.90;;;8.30;99.90;;;;;;5066363;28;20414;-77
2021/01/18 00:27:45;;;;;;;25.33;15.20;;;8.30;99.90;;;;;;5065579;28;20374;-76
2021/01/18 00:30:13;;;;;;;23.83;16.60;;;8.30;99.90;;;;;;5061112;28;20782;-77
2021/01/18 00:32:40;;;;;;;25.40;15.30;;;8.40;99.90;;;;;;5060737;28;20182;-77
2021/01/18 00:35:08;;;;;;;27.70;16.67;;;8.40;99.90;;;;;;5065524;28;20403;-77
2021/01/18 00:37:43;;;;;;;23.47;15.23;;;8.30;99.90;;;;;;5066430;28;20402;-76
2021/01/18 00:40:10;;;;;;;28.00;14.47;;;8.40;99.90;;;;;;5065600;28;20411;-77
2021/01/18 00:42:38;;;;;;;25.30;14.83;;;8.40;99.90;;;;;;5063696;28;20864;-77
2021/01/18 00:45:06;;;;;;;33.33;16.70;;;8.40;99.90;;;;;;5065327;28;20455;-77
2021/01/18 00:47:31;;;;;;;33.27;17.07;;;8.40;99.90;;;;;;5063725;28;20877;-77
2021/01/18 00:49:57;;;;;;;31.87;17.80;;;8.40;99.90;;;;;;5057121;28;20386;-78
2021/01/18 00:52:23;;;;;;;35.27;19.47;;;8.30;99.90;;;;;;5054553;28;20185;-78
2021/01/18 00:54:48;;;;;;;31.13;18.57;;;8.30;99.90;;;;;;5054331;28;20546;-78
2021/01/18 00:57:14;;;;;;;30.90;19.30;;;8.30;99.90;;;;;;5054283;28;20531;-78
2021/01/18 00:59:40;;;;;;;33.30;19.13;;;8.30;99.90;;;;;;5053300;28;20185;-76
2021/01/18 01:02:06;;;;;;;40.03;20.80;;;8.30;99.90;;;;;;5054255;28;20181;-77
2021/01/18 01:04:31;;;;;;;33.33;18.80;;;8.30;99.90;;;;;;5053751;28;20749;-78
2021/01/18 01:06:57;;;;;;;36.67;18.90;;;8.40;99.90;;;;;;5054351;28;20218;-78
2021/01/18 01:09:23;;;;;;;33.77;18.40;;;8.40;99.90;;;;;;5054839;28;20258;-78
2021/01/18 01:11:48;;;;;;;33.13;19.30;;;8.30;99.90;;;;;;5053047;28;20180;-78
2021/01/18 01:14:14;;;;;;;33.27;18.80;;;8.30;99.90;;;;;;5054813;28;20246;-78
2021/01/18 01:16:43;;;;;;;24.10;14.40;;;8.30;99.90;;;;;;5064229;28;20215;-78
2021/01/18 01:19:09;;;;;;;16.47;12.17;;;8.30;99.90;;;;;;5069653;28;20262;-78
2021/01/18 01:21:35;;;;;;;13.00;8.80;;;8.20;99.90;;;;;;5067162;28;20478;-78
2021/01/18 01:24:01;;;;;;;13.97;9.17;;;8.10;99.90;;;;;;5074185;28;20563;-78
2021/01/18 01:26:26;;;;;;;11.40;7.20;;;8.10;99.90;;;;;;5074836;28;20443;-75
2021/01/18 01:28:52;;;;;;;10.23;7.27;;;7.90;99.90;;;;;;5074019;28;20175;-76
2021/01/18 01:31:18;;;;;;;11.80;6.93;;;7.80;99.90;;;;;;5074749;28;20210;-76
2021/01/18 01:33:45;;;;;;;12.47;7.37;;;7.80;99.90;;;;;;5065481;28;20193;-75
2021/01/18 01:36:10;;;;;;;7.30;6.27;;;7.80;99.90;;;;;;5054333;28;20395;-76
2021/01/18 01:38:36;;;;;;;12.27;6.93;;;7.80;99.90;;;;;;5052889;28;20841;-76
2021/01/18 01:41:03;;;;;;;6.77;5.93;;;7.90;99.90;;;;;;5054025;28;20568;-76
2021/01/18 01:43:29;;;;;;;6.83;5.43;;;7.90;99.90;;;;;;5054439;28;20496;-76
2021/01/18 01:45:55;;;;;;;6.43;4.90;;;7.90;99.90;;;;;;5053683;28;20454;-76
2021/01/18 01:48:21;;;;;;;7.77;5.80;;;7.90;99.90;;;;;;5054390;28;20261;-76
2021/01/18 01:50:47;;;;;;;7.10;5.87;;;8.00;99.90;;;;;;5053580;28;20180;-76
2021/01/18 01:53:18;;;;;;;8.47;6.30;;;7.90;99.90;;;;;;5053973;28;20485;-76
2021/01/18 01:55:45;;;;;;;9.70;7.00;;;7.90;99.90;;;;;;5051741;28;20408;-75
2021/01/18 01:58:12;;;;;;;7.63;6.20;;;7.80;99.90;;;;;;5054201;28;20386;-75
2021/01/18 02:00:39;;;;;;;8.60;6.37;;;7.80;99.90;;;;;;5054168;28;20456;-75
2021/01/18 02:03:44;;;;;;;11.10;7.17;;;7.80;99.90;;;;;;5052423;28;20488;-75
2021/01/18 02:06:11;;;;;;;9.00;7.70;;;7.80;99.90;;;;;;5053755;28;20402;-76
2021/01/18 02:08:37;;;;;;;10.43;7.63;;;7.80;99.90;;;;;;5053779;28;20429;-76
2021/01/18 02:11:04;;;;;;;11.47;8.67;;;7.70;99.90;;;;;;5053083;28;20424;-76
2021/01/18 02:13:36;;;;;;;10.57;8.30;;;7.70;99.90;;;;;;5052486;28;20415;-76
2021/01/18 02:16:11;;;;;;;12.40;8.20;;;7.70;99.90;;;;;;5053126;28;20461;-75
2021/01/18 02:18:51;;;;;;;14.27;9.80;;;7.70;99.90;;;;;;5052708;28;20437;-75
2021/01/18 02:22:05;;;;;;;15.00;9.40;;;7.80;99.90;;;;;;5053590;28;20849;-76
2021/01/18 02:25:08;;;;;;;10.43;9.20;;;7.80;99.90;;;;;;5033722;28;20427;-75
2021/01/18 02:28:11;;;;;;;12.23;9.10;;;7.80;99.90;;;;;;5033701;28;20379;-75
2021/01/18 02:30:55;;;;;;;14.63;10.13;;;7.80;99.90;;;;;;5033725;28;20437;-76
2021/01/18 02:33:50;;;;;;;13.80;10.80;;;7.80;99.90;;;;;;5033466;28;20812;-76
2021/01/18 02:36:32;;;;;;;15.47;10.80;;;7.80;99.90;;;;;;5065741;28;20854;-76
2021/01/18 02:39:28;;;;;;;14.20;11.20;;;7.90;99.90;;;;;;5036574;28;20922;-76
2021/01/18 02:41:58;;;;;;;17.33;12.13;;;7.90;99.90;;;;;;5052693;28;20904;-76
2021/01/18 02:44:27;;;;;;;18.07;10.40;;;7.90;99.90;;;;;;5053076;28;20455;-76
2021/01/18 02:46:53;;;;;;;12.43;9.33;;;7.90;99.90;;;;;;5052563;28;20940;-76
2021/01/18 02:49:21;;;;;;;12.97;9.67;;;7.80;99.90;;;;;;5053157;28;20411;-76
2021/01/18 02:51:54;;;;;;;14.70;9.80;;;7.80;99.90;;;;;;5052713;28;20425;-76
2021/01/18 02:54:20;;;;;;;11.70;8.87;;;7.80;99.90;;;;;;5053526;28;20397;-77
2021/01/18 02:56:51;;;;;;;13.77;10.60;;;7.80;99.90;;;;;;5052451;28;20867;-76
2021/01/18 02:59:17;;;;;;;14.53;9.50;;;7.80;99.90;;;;;;5053185;28;20172;-76
2021/01/18 03:02:14;;;;;;;14.77;9.37;;;7.80;99.90;;;;;;5084782;28;20403;-76
2021/01/18 03:05:06;;;;;;;14.60;9.70;;;7.90;99.90;;;;;;5053080;28;20399;-76
2021/01/18 03:07:55;;;;;;;12.73;9.90;;;7.90;99.90;;;;;;5051635;28;20775;-75
2021/01/18 03:10:28;;;;;;;11.57;9.60;;;7.90;99.90;;;;;;5078478;28;20484;-76
2021/01/18 03:13:11;;;;;;;17.77;9.30;;;7.90;99.90;;;;;;5052081;28;20412;-76
2021/01/18 03:15:42;;;;;;;12.77;8.43;;;7.90;99.90;;;;;;5052856;28;20396;-75
2021/01/18 03:18:12;;;;;;;13.27;9.00;;;7.90;99.90;;;;;;5052144;28;20394;-75
2021/01/18 03:20:38;;;;;;;11.40;9.53;;;7.90;99.90;;;;;;5052466;28;20374;-75
2021/01/18 03:23:07;;;;;;;15.23;8.87;;;7.90;99.90;;;;;;5051668;28;20461;-75
2021/01/18 03:25:53;;;;;;;12.20;9.30;;;7.90;99.90;;;;;;5052626;28;20426;-75
2021/01/18 03:28:21;;;;;;;14.40;9.20;;;7.80;99.90;;;;;;5052649;28;20391;-75
2021/01/18 03:30:47;;;;;;;11.63;8.57;;;7.90;99.90;;;;;;5078516;28;20390;-76
2021/01/18 03:33:14;;;;;;;12.37;8.20;;;7.90;99.90;;;;;;5032568;28;20389;-75
2021/01/18 03:35:41;;;;;;;10.03;7.43;;;8.00;99.90;;;;;;5032413;28;20506;-75
2021/01/18 03:38:07;;;;;;;8.30;6.70;;;7.90;99.90;;;;;;5031648;28;20403;-76
2021/01/18 03:40:33;;;;;;;9.00;7.47;;;7.90;99.90;;;;;;5048108;28;20418;-76
2021/01/18 03:43:04;;;;;;;13.70;8.80;;;7.90;99.90;;;;;;5051403;28;20461;-76
2021/01/18 03:45:32;;;;;;;10.53;8.27;;;7.90;99.90;;;;;;5050645;28;20532;-75
2021/01/18 03:47:58;;;;;;;14.93;9.97;;;7.90;99.90;;;;;;5051475;28;20501;-76
2021/01/18 03:50:24;;;;;;;13.10;10.20;;;7.90;99.90;;;;;;5052235;28;20415;-76
2021/01/18 03:52:51;;;;;;;15.20;10.97;;;8.00;99.90;;;;;;5051179;28;20191;-76
2021/01/18 03:55:17;;;;;;;18.07;12.47;;;7.90;99.90;;;;;;5051480;28;20191;-76
2021/01/18 03:57:53;;;;;;;16.63;12.30;;;7.90;99.90;;;;;;5051687;28;20502;-76
2021/01/18 04:00:21;;;;;;;16.97;12.00;;;7.90;99.90;;;;;;5052029;28;20388;-76
2021/01/18 04:02:47;;;;;;;20.07;12.60;;;7.90;99.90;;;;;;5051547;28;20526;-76
2021/01/18 04:05:14;;;;;;;20.53;13.37;;;7.90;99.90;;;;;;5051471;28;20377;-76
2021/01/18 04:07:41;;;;;;;20.27;13.40;;;7.90;99.90;;;;;;5052062;28;20443;-75
2021/01/18 04:10:07;;;;;;;22.87;14.50;;;8.00;99.90;;;;;;5050913;28;20385;-75
2021/01/18 04:12:33;;;;;;;21.70;14.83;;;7.90;99.90;;;;;;5051972;28;20399;-75
2021/01/18 04:14:59;;;;;;;20.67;14.50;;;7.90;99.90;;;;;;5051093;28;20868;-74
2021/01/18 04:17:25;;;;;;;20.07;13.77;;;7.90;99.90;;;;;;5050732;28;20627;-75
2021/01/18 04:19:50;;;;;;;24.40;16.10;;;7.90;99.90;;;;;;5051097;28;20184;-76
2021/01/18 04:22:16;;;;;;;22.27;15.73;;;7.90;99.90;;;;;;5051833;28;20175;-75
2021/01/18 04:24:42;;;;;;;23.87;15.23;;;7.90;99.90;;;;;;5051581;28;20176;-75
2021/01/18 04:27:08;;;;;;;20.80;14.70;;;7.90;99.90;;;;;;5051158;28;20250;-75
2021/01/18 04:29:34;;;;;;;20.80;15.50;;;7.90;99.90;;;;;;5082804;28;20190;-74
2021/01/18 04:32:00;;;;;;;18.73;14.03;;;7.90;99.90;;;;;;5050908;28;20447;-75
2021/01/18 04:34:25;;;;;;;18.40;13.07;;;7.80;99.90;;;;;;5051829;28;20378;-74
2021/01/18 04:36:51;;;;;;;22.17;14.00;;;7.80;99.90;;;;;;5049513;28;20237;-76
2021/01/18 04:39:17;;;;;;;18.97;13.63;;;7.80;99.90;;;;;;5050585;28;20179;-74
2021/01/18 04:41:44;;;;;;;17.13;12.73;;;7.80;99.90;;;;;;5050928;28;20635;-74
2021/01/18 04:44:12;;;;;;;16.97;11.67;;;7.70;99.90;;;;;;5050450;28;20209;-75
2021/01/18 04:46:42;;;;;;;17.20;13.97;;;7.80;99.90;;;;;;5051528;28;20454;-73
2021/01/18 04:49:09;;;;;;;19.87;12.90;;;7.70;99.90;;;;;;5049514;28;20404;-72
2021/01/18 04:51:46;;;;;;;20.23;15.27;;;7.80;99.90;;;;;;5050578;28;20831;-72
2021/01/18 04:54:17;;;;;;;19.80;14.47;;;7.80;99.90;;;;;;5050682;28;20543;-72
2021/01/18 04:57:04;;;;;;;22.03;14.27;;;7.80;99.90;;;;;;5038392;28;20409;-72
2021/01/18 04:59:41;;;;;;;22.43;17.30;;;7.80;99.90;;;;;;5052217;28;20747;-72
2021/01/18 05:02:17;;;;;;;25.27;17.07;;;7.80;99.90;;;;;;5050755;28;20844;-72
2021/01/18 05:04:51;;;;;;;20.93;16.00;;;7.80;99.90;;;;;;5051392;28;20431;-72
2021/01/18 05:07:35;;;;;;;25.13;16.43;;;7.80;99.90;;;;;;5052351;28;20416;-72
2021/01/18 05:10:12;;;;;;;27.83;16.60;;;7.80;99.90;;;;;;5054329;28;20416;-72
2021/01/18 05:12:40;;;;;;;22.53;18.40;;;7.80;99.90;;;;;;5037644;28;20381;-72
2021/01/18 05:15:10;;;;;;;23.37;16.47;;;7.80;99.90;;;;;;5054238;28;20455;-72
2021/01/18 05:17:42;;;;;;;23.63;17.20;;;7.80;99.90;;;;;;5054548;28;20494;-72
2021/01/18 05:20:11;;;;;;;27.83;17.60;;;7.80;99.90;;;;;;5042717;28;20397;-72
2021/01/18 05:22:39;;;;;;;28.30;17.40;;;7.80;99.90;;;;;;5053413;28;20460;-72
2021/01/18 05:25:08;;;;;;;26.50;18.33;;;7.90;99.90;;;;;;5054415;28;20396;-72
2021/01/18 05:27:34;;;;;;;21.13;16.43;;;7.80;99.90;;;;;;5054794;28;20410;-72
2021/01/18 05:30:00;;;;;;;24.63;18.20;;;7.80;99.90;;;;;;5053973;28;20900;-72
2021/01/18 05:32:26;;;;;;;23.17;18.47;;;7.80;99.90;;;;;;5054252;28;20187;-72
2021/01/18 05:35:11;;;;;;;26.33;15.90;;;7.80;99.90;;;;;;5054308;28;20624;-72
2021/01/18 05:37:58;;;;;;;23.67;18.90;;;7.80;99.90;;;;;;5054755;28;20402;-72
2021/01/18 05:40:25;;;;;;;20.90;17.30;;;7.80;99.90;;;;;;5053360;28;20384;-72
2021/01/18 05:42:51;;;;;;;24.17;17.60;;;7.90;99.90;;;;;;5042192;28;20539;-72
2021/01/18 05:45:37;;;;;;;23.97;18.07;;;7.90;99.90;;;;;;5054184;28;20966;-72
2021/01/18 05:48:05;;;;;;;26.63;16.90;;;7.90;99.90;;;;;;5052802;28;20393;-72
2021/01/18 05:50:32;;;;;;;24.73;18.27;;;7.90;99.90;;;;;;5054266;28;20418;-72
2021/01/18 05:52:58;;;;;;;19.80;15.63;;;8.00;99.90;;;;;;5052320;28;20883;-73
2021/01/18 05:55:25;;;;;;;26.63;17.47;;;8.00;99.90;;;;;;5054646;28;20410;-72
2021/01/18 05:58:01;;;;;;;25.23;17.10;;;8.00;99.90;;;;;;5054044;28;20390;-72
2021/01/18 06:00:32;;;;;;;26.53;17.53;;;8.00;99.90;;;;;;5054441;28;20409;-72
2021/01/18 06:02:59;;;;;;;26.83;17.33;;;8.00;99.90;;;;;;5053195;28;20811;-74
2021/01/18 06:05:34;;;;;;;22.77;18.53;;;7.90;99.90;;;;;;5049054;28;20516;-74
2021/01/18 06:08:18;;;;;;;25.93;18.13;;;8.00;99.90;;;;;;5050123;28;20451;-75
2021/01/18 06:10:45;;;;;;;24.90;17.20;;;7.90;99.90;;;;;;5054554;28;20414;-74
2021/01/18 06:13:32;;;;;;;25.83;17.63;;;7.90;99.90;;;;;;5053014;28;20390;-74
2021/01/18 06:16:09;;;;;;;27.70;17.10;;;7.90;99.90;;;;;;5035510;28;20407;-74
2021/01/18 06:18:41;;;;;;;26.70;17.20;;;8.00;99.90;;;;;;5053057;28;20843;-74
2021/01/18 06:21:12;;;;;;;26.90;17.70;;;8.00;99.90;;;;;;5053134;28;20381;-74
2021/01/18 06:23:39;;;;;;;18.30;15.40;;;8.10;99.90;;;;;;5054158;28;20445;-74
2021/01/18 06:26:05;;;;;;;22.57;17.30;;;8.10;99.90;;;;;;5051565;28;20895;-74
2021/01/18 06:28:36;;;;;;;31.43;17.80;;;8.00;99.90;;;;;;5053543;28;20407;-74
2021/01/18 06:31:03;;;;;;;23.67;16.40;;;8.10;99.90;;;;;;5052638;28;20229;-74
2021/01/18 06:33:46;;;;;;;23.33;16.20;;;8.10;99.90;;;;;;5053324;28;20891;-74
2021/01/18 06:36:17;;;;;;;24.80;16.80;;;8.10;99.90;;;;;;5052559;28;20856;-74
2021/01/18 06:39:05;;;;;;;24.83;17.97;;;8.00;99.90;;;;;;5053734;28;20423;-74
2021/01/18 06:41:35;;;;;;;29.00;18.23;;;8.00;99.90;;;;;;5053376;28;20407;-74
2021/01/18 06:44:02;;;;;;;24.40;17.33;;;8.10;99.90;;;;;;5052287;28;20422;-73
2021/01/18 06:46:31;;;;;;;23.17;17.10;;;8.10;99.90;;;;;;5053080;28;20756;-72
2021/01/18 06:48:57;;;;;;;25.37;17.17;;;8.10;99.90;;;;;;5053977;28;20462;-73
2021/01/18 06:51:25;;;;;;;31.47;18.43;;;8.10;99.90;;;;;;5053761;28;20423;-72
2021/01/18 06:53:53;;;;;;;22.30;17.03;;;8.10;99.90;;;;;;5052181;28;20431;-72
2021/01/18 06:56:21;;;;;;;23.20;17.97;;;8.10;99.90;;;;;;5052142;28;21183;-72
2021/01/18 06:58:50;;;;;;;27.70;16.43;;;8.10;99.90;;;;;;5052842;28;20419;-72
2021/01/18 07:01:29;;;;;;;23.00;15.93;;;8.10;99.90;;;;;;5051780;28;20425;-72
2021/01/18 07:04:13;;;;;;;25.93;16.03;;;8.10;99.90;;;;;;5052937;28;20970;-72
2021/01/18 07:06:40;;;;;;;27.10;19.20;;;8.10;99.90;;;;;;5085154;28;20409;-72
2021/01/18 07:09:19;;;;;;;25.47;15.53;;;8.10;99.90;;;;;;5051764;28;20395;-72
2021/01/18 07:11:45;;;;;;;22.30;16.30;;;8.10;99.90;;;;;;5052096;28;20420;-73
2021/01/18 07:14:13;;;;;;;26.57;16.33;;;8.10;99.90;;;;;;5051953;28;20442;-73
2021/01/18 07:16:40;;;;;;;24.17;15.63;;;8.10;99.90;;;;;;5051549;28;20497;-72
2021/01/18 07:19:08;;;;;;;17.20;14.57;;;8.10;99.90;;;;;;5051178;28;20432;-74
2021/01/18 07:22:12;;;;;;;18.10;13.27;;;8.20;99.90;;;;;;5052547;28;20785;-73
2021/01/18 07:24:47;;;;;;;22.10;15.30;;;8.20;99.90;;;;;;5051950;28;20762;-73
2021/01/18 07:27:20;;;;;;;20.60;15.03;;;8.20;99.90;;;;;;5049689;28;20419;-73
2021/01/18 07:29:45;;;;;;;21.60;14.30;;;8.20;99.90;;;;;;5051772;28;20451;-73
2021/01/18 07:32:12;;;;;;;24.00;15.83;;;8.20;99.90;;;;;;5051325;28;20793;-74
2021/01/18 07:34:38;;;;;;;21.90;14.70;;;8.20;99.90;;;;;;5052356;28;20220;-74
2021/01/18 07:37:10;;;;;;;19.97;15.10;;;8.20;99.90;;;;;;5052607;28;20477;-74
2021/01/18 07:39:40;;;;;;;18.97;15.17;;;8.20;99.90;;;;;;5049763;28;20390;-74
2021/01/18 07:42:26;;;;;;;21.10;15.73;;;8.10;99.90;;;;;;5049096;28;20793;-74
2021/01/18 07:45:11;;;;;;;19.33;15.53;;;8.10;99.90;;;;;;5052188;28;21704;-74
2021/01/18 07:47:57;;;;;;;23.20;15.50;;;8.20;99.90;;;;;;5052206;28;20882;-75
2021/01/18 07:50:32;;;;;;;19.77;16.37;;;8.20;99.90;;;;;;5054193;28;20539;-74
2021/01/18 07:53:02;;;;;;;24.37;15.60;;;8.10;99.90;;;;;;5052264;28;20481;-74
2021/01/18 07:55:28;;;;;;;17.60;15.23;;;8.10;99.90;;;;;;5052015;28;20423;-77
2021/01/18 07:57:54;;;;;;;24.10;14.90;;;8.10;99.90;;;;;;5051144;28;20422;-74
2021/01/18 08:00:25;;;;;;;20.00;16.03;;;8.10;99.90;;;;;;5051020;28;20400;-74
2021/01/18 08:03:18;;;;;;;20.00;14.13;;;8.50;99.90;;;;;;5051381;28;20276;-75
2021/01/18 08:05:44;;;;;;;17.57;12.20;;;8.80;99.90;;;;;;5035480;28;20768;-74
2021/01/18 08:08:17;;;;;;;22.10;14.27;;;8.80;99.90;;;;;;5051484;28;20431;-74
2021/01/18 08:11:08;;;;;;;21.57;14.53;;;9.20;99.90;;;;;;5050770;28;20383;-74
2021/01/18 08:13:44;;;;;;;20.47;13.60;;;9.70;99.90;;;;;;5047452;28;20879;-74
2021/01/18 08:16:19;;;;;;;16.50;14.40;;;10.10;98.90;;;;;;5059628;28;20780;-74
2021/01/18 08:18:58;;;;;;;19.03;13.10;;;10.50;97.50;;;;;;5051445;28;20424;-73
2021/01/18 08:21:33;;;;;;;18.47;12.93;;;10.90;96.90;;;;;;5050737;28;20413;-74
2021/01/18 08:24:11;;;;;;;20.27;14.73;;;11.20;96.00;;;;;;5046262;28;20480;-76
2021/01/18 08:27:00;;;;;;;17.20;14.97;;;11.50;95.30;;;;;;5051740;28;20512;-76
2021/01/18 08:29:46;;;;;;;18.13;12.87;;;11.80;94.30;;;;;;5038646;28;20466;-83
2021/01/18 08:32:24;;;;;;;14.47;11.07;;;11.90;93.30;;;;;;5032730;28;20420;-81
2021/01/18 08:35:21;;;;;;;16.83;12.43;;;11.90;93.70;;;;;;5049867;28;20420;-81
2021/01/18 08:37:56;;;;;;;13.20;11.70;;;12.00;93.30;;;;;;5049852;28;20419;-79
2021/01/18 08:40:31;;;;;;;13.83;11.93;;;12.00;92.50;;;;;;5048818;28;20422;-81
2021/01/18 08:42:58;;;;;;;14.23;11.57;;;12.20;92.60;;;;;;5052667;28;20450;-81
2021/01/18 08:45:49;;;;;;;19.57;11.57;;;12.20;91.80;;;;;;5053169;28;20490;-80
2021/01/18 08:48:26;;;;;;;14.53;10.90;;;12.10;92.50;;;;;;5052816;28;20960;-80
2021/01/18 08:50:54;;;;;;;22.27;11.63;;;12.10;94.20;;;;;;5038173;28;20829;-81
2021/01/18 08:53:31;;;;;;;15.60;11.47;;;12.20;92.80;;;;;;5053744;28;20465;-81
2021/01/18 08:55:57;;;;;;;18.17;11.70;;;12.30;92.30;;;;;;5055575;28;20431;-79
2021/01/18 08:58:43;;;;;;;18.90;11.90;;;12.60;92.20;;;;;;5067213;28;20845;-80
2021/01/18 09:01:11;;;;;;;17.50;11.60;;;12.70;92.00;;;;;;5051999;28;20529;-80
2021/01/18 09:03:37;;;;;;;12.87;9.90;;;12.90;91.30;;;;;;5037317;28;20453;-80
2021/01/18 09:06:03;;;;;;;15.80;11.90;;;13.00;90.90;;;;;;5054413;28;20424;-82
2021/01/18 09:08:31;;;;;;;20.90;11.40;;;13.10;91.20;;;;;;5054120;28;20919;-80
2021/01/18 09:11:02;;;;;;;16.43;11.93;;;13.00;90.10;;;;;;5055511;28;20847;-80
2021/01/18 09:13:30;;;;;;;15.80;12.10;;;13.00;90.30;;;;;;5054401;28;20497;-81
2021/01/18 09:15:59;;;;;;;19.33;12.47;;;13.00;91.30;;;;;;5087790;28;20411;-80
2021/01/18 09:18:25;;;;;;;18.67;12.70;;;13.10;91.70;;;;;;5058740;28;20469;-80
2021/01/18 09:20:56;;;;;;;18.37;13.73;;;13.20;90.50;;;;;;5054872;28;20419;-79
2021/01/18 09:23:25;;;;;;;20.60;12.97;;;13.20;90.00;;;;;;5056064;28;20479;-79
2021/01/18 09:26:11;;;;;;;14.20;12.47;;;13.40;92.50;;;;;;5045574;28;20411;-80
2021/01/18 09:28:57;;;;;;;15.10;11.80;;;13.40;89.90;;;;;;5057402;28;20435;-80
2021/01/18 09:31:24;;;;;;;13.50;11.00;;;13.30;89.10;;;;;;5054473;28;20480;-79
2021/01/18 09:33:52;;;;;;;20.03;13.53;;;13.20;89.20;;;;;;5055034;28;20430;-77
2021/01/18 09:36:22;;;;;;;16.90;11.87;;;13.10;89.40;;;;;;5054827;28;20468;-80
2021/01/18 09:38:48;;;;;;;17.43;12.27;;;13.00;87.50;;;;;;5055245;28;20497;-80
2021/01/18 09:41:15;;;;;;;12.53;11.00;;;12.50;87.70;;;;;;5053460;28;20414;-80
2021/01/18 09:43:43;;;;;;;20.97;10.90;;;12.00;88.70;;;;;;5053866;28;20455;-78
2021/01/18 09:46:09;;;;;;;19.43;10.97;;;11.60;90.20;;;;;;5078906;28;20484;-80
2021/01/18 09:48:35;;;;;;;15.27;11.10;;;11.30;91.00;;;;;;5051378;28;20954;-79
2021/01/18 09:51:06;;;;;;;17.53;11.57;;;11.00;91.50;;;;;;5053476;28;20436;-78
2021/01/18 09:53:33;;;;;;;16.07;11.20;;;10.60;92.20;;;;;;5052517;28;20475;-76
2021/01/18 09:56:02;;;;;;;14.03;10.03;;;10.30;92.90;;;;;;5054583;28;20425;-77
2021/01/18 09:58:44;;;;;;;14.50;10.37;;;10.10;93.60;;;;;;5080852;28;20557;-78
2021/01/18 10:01:14;;;;;;;14.60;9.93;;;9.80;94.80;;;;;;5053444;28;20495;-78
2021/01/18 10:03:40;;;;;;;16.50;11.50;;;9.60;95.50;;;;;;5053270;28;20440;-76
2021/01/18 10:06:14;;;;;;;17.73;11.70;;;9.50;96.00;;;;;;5054150;28;20746;-77
2021/01/18 10:08:44;;;;;;;16.93;11.53;;;9.30;96.70;;;;;;5048506;28;20440;-77
2021/01/18 10:11:10;;;;;;;12.83;10.53;;;9.20;97.30;;;;;;5053835;28;20476;-77
2021/01/18 10:13:36;;;;;;;14.13;11.03;;;9.10;97.50;;;;;;5053604;28;20408;-72
2021/01/18 10:16:07;;;;;;;17.30;12.47;;;9.00;98.00;;;;;;5053492;28;20398;-74
2021/01/18 10:18:44;;;;;;;15.27;13.67;;;8.80;98.40;;;;;;5052177;28;20389;-73
2021/01/18 10:21:11;;;;;;;20.83;11.37;;;8.80;98.50;;;;;;5053454;28;20403;-74
2021/01/18 10:23:39;;;;;;;21.40;14.07;;;8.80;98.70;;;;;;5053674;28;20816;-74
2021/01/18 10:26:25;;;;;;;15.57;12.80;;;8.70;98.80;;;;;;5053708;28;20382;-74
2021/01/18 10:28:58;;;;;;;17.33;11.83;;;8.60;99.20;;;;;;5053731;28;20396;-74
2021/01/18 10:31:34;;;;;;;16.83;12.70;;;8.60;99.40;;;;;;5052869;28;20363;-74
2021/01/18 10:34:16;;;;;;;25.50;13.20;;;8.50;99.50;;;;;;5051964;28;20432;-74
2021/01/18 10:36:46;;;;;;;22.43;13.40;;;8.50;99.80;;;;;;5052253;28;20394;-74
2021/01/18 10:39:30;;;;;;;15.80;11.50;;;8.50;99.80;;;;;;5052344;28;20472;-75
2021/01/18 10:42:10;;;;;;;22.57;14.37;;;8.50;99.70;;;;;;5053427;28;20879;-73
2021/01/18 10:44:53;;;;;;;21.20;12.20;;;8.50;99.70;;;;;;5052900;28;20485;-73
2021/01/18 10:47:27;;;;;;;20.40;12.17;;;8.60;99.90;;;;;;5051740;28;20415;-73
2021/01/18 10:49:58;;;;;;;20.00;12.30;;;8.60;99.70;;;;;;5052906;28;20440;-73
2021/01/18 10:52:42;;;;;;;20.77;12.40;;;8.70;99.60;;;;;;5052247;28;20922;-74
2021/01/18 10:55:12;;;;;;;18.43;12.20;;;8.60;99.60;;;;;;5051723;28;20389;-74
2021/01/18 10:57:39;;;;;;;17.17;13.50;;;8.60;99.50;;;;;;5033054;28;20443;-74
2021/01/18 11:00:10;;;;;;;15.70;10.50;;;8.60;99.50;;;;;;5033110;28;20412;-74
2021/01/18 11:02:41;;;;;;;15.93;12.83;;;8.60;99.40;;;;;;5032844;28;20494;-74
2021/01/18 11:05:10;;;;;;;14.37;12.47;;;8.60;99.60;;;;;;5049085;28;20823;-74
2021/01/18 11:07:38;;;;;;;17.63;10.50;;;8.60;99.60;;;;;;5051740;28;20445;-74
2021/01/18 11:10:10;;;;;;;21.23;11.37;;;8.60;99.60;;;;;;5052428;28;20411;-74
2021/01/18 11:12:41;;;;;;;15.80;10.47;;;8.60;99.20;;;;;;5051415;28;20454;-74
2021/01/18 11:15:12;;;;;;;22.43;10.40;;;8.70;99.30;;;;;;5052538;28;20414;-74
2021/01/18 11:17:39;;;;;;;17.27;12.90;;;8.70;99.60;;;;;;5051794;28;20522;-74
2021/01/18 11:20:06;;;;;;;16.27;10.30;;;8.80;99.60;;;;;;5054112;28;20821;-74
2021/01/18 11:22:33;;;;;;;13.50;10.80;;;8.80;99.30;;;;;;5040013;28;21211;-74
2021/01/18 11:24:59;;;;;;;14.10;10.60;;;8.80;98.90;;;;;;5039791;28;22191;-74
2021/01/18 11:27:25;;;;;;;11.30;10.00;;;8.80;98.80;;;;;;5052045;28;20414;-74
2021/01/18 11:29:50;;;;;;;13.00;9.87;;;8.80;98.90;;;;;;5051168;28;20204;-74
2021/01/18 11:32:17;;;;;;;14.93;10.80;;;8.80;98.80;;;;;;5050964;28;20911;-74
2021/01/18 11:34:43;;;;;;;17.27;11.60;;;8.80;98.50;;;;;;5051529;28;20173;-74
2021/01/18 11:37:09;;;;;;;14.90;10.00;;;8.80;98.30;;;;;;5052453;28;20498;-74
2021/01/18 11:39:37;;;;;;;11.13;8.60;;;8.90;98.50;;;;;;5052447;28;20400;-75
2021/01/18 11:42:04;;;;;;;19.73;12.20;;;9.00;98.50;;;;;;5052661;28;20426;-74
2021/01/18 11:44:30;;;;;;;13.60;10.00;;;9.10;98.60;;;;;;5051925;28;20959;-74
2021/01/18 11:46:57;;;;;;;12.77;9.67;;;9.20;97.90;;;;;;5051011;28;20483;-75
2021/01/18 11:49:23;;;;;;;10.87;7.90;;;9.50;97.70;;;;;;5051753;28;20177;-74
2021/01/18 11:51:49;;;;;;;12.97;8.67;;;9.60;97.00;;;;;;5052629;28;20396;-74
2021/01/18 11:54:15;;;;;;;12.90;10.17;;;9.70;96.90;;;;;;5051902;28;20427;-74
2021/01/18 11:56:41;;;;;;;11.80;8.50;;;9.80;96.80;;;;;;5052498;28;20411;-74
2021/01/18 11:59:07;;;;;;;8.20;7.20;;;9.70;95.90;;;;;;5052357;28;20170;-74
2021/01/18 12:01:33;;;;;;;9.97;7.90;;;9.70;95.40;;;;;;5051884;28;20627;-74
2021/01/18 12:03:59;;;;;;;12.37;11.07;;;9.60;95.70;;;;;;5052324;28;20477;-74
2021/01/18 12:06:35;;;;;;;10.03;6.93;;;9.60;95.80;;;;;;5051761;28;20544;-74
2021/01/18 12:09:01;;;;;;;8.63;7.70;;;9.60;95.60;;;;;;5047537;28;20883;-74
2021/01/18 12:11:27;;;;;;;9.03;7.60;;;9.60;95.40;;;;;;5046847;28;20410;-74
2021/01/18 12:13:54;;;;;;;17.40;7.90;;;9.50;95.60;;;;;;5052018;28;20451;-74
2021/01/18 12:16:24;;;;;;;16.30;8.07;;;9.50;95.70;;;;;;5051341;28;20379;-74
2021/01/18 12:18:50;;;;;;;13.10;10.00;;;9.40;95.70;;;;;;5056000;28;20554;-74
2021/01/18 12:21:15;;;;;;;12.57;8.93;;;9.40;95.80;;;;;;5055394;28;20408;-74
2021/01/18 12:23:41;;;;;;;11.03;7.80;;;9.40;95.60;;;;;;5056218;28;20217;-75
2021/01/18 12:26:07;;;;;;;15.83;8.27;;;9.40;95.70;;;;;;5055142;28;20235;-75
2021/01/18 12:28:33;;;;;;;12.43;7.67;;;9.40;95.90;;;;;;5055294;28;20184;-74
2021/01/18 12:30:59;;;;;;;7.90;7.20;;;9.40;95.90;;;;;;5054475;28;20417;-74
2021/01/18 12:33:25;;;;;;;13.77;7.40;;;9.40;96.00;;;;;;5035311;28;20186;-74
2021/01/18 12:35:51;;;;;;;12.50;7.60;;;9.20;95.80;;;;;;5034624;28;20174;-74
2021/01/18 12:38:17;;;;;;;11.83;7.07;;;9.20;96.00;;;;;;5045523;28;20419;-74
2021/01/18 12:40:43;;;;;;;8.07;7.00;;;9.20;96.10;;;;;;5055753;28;20487;-74
2021/01/18 12:43:09;;;;;;;12.80;7.77;;;9.20;96.10;;;;;;5055755;28;20533;-74
2021/01/18 12:45:35;;;;;;;12.67;7.17;;;9.10;95.80;;;;;;5055135;28;20506;-73
2021/01/18 12:48:00;;;;;;;12.77;7.10;;;9.10;96.10;;;;;;5055433;28;20546;-73
2021/01/18 12:50:26;;;;;;;7.70;6.90;;;9.10;96.10;;;;;;5054832;28;20271;-76
2021/01/18 12:52:52;;;;;;;10.17;6.90;;;9.00;96.10;;;;;;5055091;28;20285;-76
2021/01/18 12:55:20;;;;;;;8.33;6.67;;;9.10;96.20;;;;;;5044276;28;20185;-76
2021/01/18 12:57:50;;;;;;;7.57;6.87;;;9.10;96.20;;;;;;5053723;28;20641;-76